Time;durP1;ratioP1;P1;durP2;ratioP2;P2;SDS_P1;SDS_P2;PMS_P1;PMS_P2;Temp;Humidity;BMP_temperature;BMP_pressure;BME280_temperature;BME280_humidity;BME280_pressure;Samples;Min_cycle;Max_cycle;Signal;HPM_P1;HPM_P2
2023/06/25 00:01:51;;;;;;;7.83;6.70;;;;;;;;;;5071685;28;20308;-67
2023/06/25 00:04:17;;;;;;;7.23;6.53;;;;;;;;;;5073035;28;20182;-67
2023/06/25 00:06:43;;;;;;;7.50;6.57;;;;;;;;;;5073384;28;20174;-69
2023/06/25 00:09:09;;;;;;;8.30;7.50;;;;;;;;;;5070458;28;20430;-68
2023/06/25 00:11:35;;;;;;;8.27;7.47;;;;;;;;;;5071822;28;20384;-68
2023/06/25 00:14:02;;;;;;;9.98;7.47;;;;;;;;;;5071838;28;20367;-67
2023/06/25 00:16:29;;;;;;;7.97;7.00;;;;;;;;;;5073338;28;20636;-68
2023/06/25 00:18:55;;;;;;;9.80;7.40;;;;;;;;;;5071570;28;20197;-68
2023/06/25 00:21:21;;;;;;;9.63;7.10;;;;;;;;;;5072972;28;20284;-68
2023/06/25 00:23:47;;;;;;;8.50;7.03;;;;;;;;;;5076224;28;20205;-68
2023/06/25 00:26:12;;;;;;;8.93;7.80;;;;;;;;;;5075733;28;20181;-68
2023/06/25 00:28:38;;;;;;;8.87;7.97;;;;;;;;;;5075746;28;20178;-68
2023/06/25 00:31:07;;;;;;;8.87;7.67;;;;;;;;;;5075597;28;20201;-68
2023/06/25 00:33:33;;;;;;;8.90;7.30;;;;;;;;;;5076905;28;20188;-68
2023/06/25 00:35:59;;;;;;;10.40;7.20;;;;;;;;;;5075522;28;20565;-68
2023/06/25 00:38:25;;;;;;;8.47;7.47;;;;;;;;;;5075473;28;20202;-68
2023/06/25 00:40:51;;;;;;;7.83;7.03;;;;;;;;;;5076678;28;20339;-68
2023/06/25 00:43:20;;;;;;;11.37;7.20;;;;;;;;;;5076658;28;20699;-68
2023/06/25 00:45:46;;;;;;;10.47;7.37;;;;;;;;;;5076911;28;20253;-68
2023/06/25 00:48:13;;;;;;;8.67;7.23;;;;;;;;;;5076839;28;20232;-68
2023/06/25 00:50:39;;;;;;;10.47;7.20;;;;;;;;;;5077160;28;20185;-69
2023/06/25 00:53:08;;;;;;;10.13;7.33;;;;;;;;;;5076466;28;20174;-68
2023/06/25 00:55:34;;;;;;;8.70;7.60;;;;;;;;;;5075352;28;20186;-68
2023/06/25 00:58:00;;;;;;;9.00;7.60;;;;;;;;;;5075299;28;20300;-68
2023/06/25 01:00:27;;;;;;;7.77;6.90;;;;;;;;;;5076744;28;20181;-68
2023/06/25 01:03:04;;;;;;;7.73;6.93;;;;;;;;;;5075039;28;20182;-68
2023/06/25 01:05:39;;;;;;;10.80;7.93;;;;;;;;;;5076753;28;20251;-68
2023/06/25 01:08:08;;;;;;;7.73;6.90;;;;;;;;;;5076264;28;20244;-68
2023/06/25 01:10:35;;;;;;;8.03;7.23;;;;;;;;;;5074922;28;20194;-67
2023/06/25 01:13:01;;;;;;;10.90;7.60;;;;;;;;;;5076332;28;20189;-68
2023/06/25 01:15:27;;;;;;;8.47;7.57;;;;;;;;;;5100632;22;20719;-66
2023/06/25 01:17:54;;;;;;;11.07;8.13;;;;;;;;;;5075564;28;20240;-67
2023/06/25 01:20:21;;;;;;;12.07;8.13;;;;;;;;;;5075564;28;20182;-67
2023/06/25 01:22:48;;;;;;;9.33;7.63;;;;;;;;;;5075227;28;20647;-67
2023/06/25 01:25:14;;;;;;;9.33;8.03;;;;;;;;;;5076717;28;20193;-67
2023/06/25 01:27:41;;;;;;;8.13;7.30;;;;;;;;;;5077118;28;20188;-66
2023/06/25 01:30:08;;;;;;;9.97;7.73;;;;;;;;;;5080036;28;20204;-66
2023/06/25 01:32:34;;;;;;;7.93;7.13;;;;;;;;;;5077554;28;20174;-66
2023/06/25 01:35:00;;;;;;;11.30;7.83;;;;;;;;;;5074936;28;20623;-67
2023/06/25 01:37:28;;;;;;;9.33;7.70;;;;;;;;;;5076318;28;20713;-67
2023/06/25 01:39:55;;;;;;;14.77;7.43;;;;;;;;;;5076462;28;20581;-67
2023/06/25 01:42:21;;;;;;;10.17;7.80;;;;;;;;;;5076182;28;20178;-67
2023/06/25 01:44:47;;;;;;;12.27;7.10;;;;;;;;;;5075813;28;20236;-67
2023/06/25 01:47:14;;;;;;;9.73;7.80;;;;;;;;;;5074565;28;20212;-67
2023/06/25 01:49:40;;;;;;;10.07;7.27;;;;;;;;;;5074802;28;20239;-67
2023/06/25 01:52:07;;;;;;;11.87;8.03;;;;;;;;;;5074532;28;20189;-66
2023/06/25 01:54:33;;;;;;;10.57;8.00;;;;;;;;;;5076116;28;20263;-68
2023/06/25 01:56:59;;;;;;;8.10;7.30;;;;;;;;;;5075724;28;20182;-67
2023/06/25 01:59:26;;;;;;;9.43;8.32;;;;;;;;;;5073509;28;20758;-67
2023/06/25 02:01:52;;;;;;;11.50;8.30;;;;;;;;;;5074732;28;20913;-67
2023/06/25 02:04:19;;;;;;;8.57;7.73;;;;;;;;;;5075572;28;20286;-66
2023/06/25 02:06:45;;;;;;;10.13;7.60;;;;;;;;;;5075673;28;20335;-67
2023/06/25 02:09:11;;;;;;;9.77;7.67;;;;;;;;;;5075295;28;20186;-67
2023/06/25 02:11:37;;;;;;;10.53;7.70;;;;;;;;;;5075757;28;20181;-67
2023/06/25 02:14:06;;;;;;;8.53;7.63;;;;;;;;;;5073872;28;20217;-67
2023/06/25 02:16:32;;;;;;;8.70;7.13;;;;;;;;;;5075588;28;20220;-67
2023/06/25 02:18:58;;;;;;;9.20;7.83;;;;;;;;;;5073971;28;20209;-67
2023/06/25 02:21:24;;;;;;;8.50;7.57;;;;;;;;;;5074015;28;20188;-66
2023/06/25 02:23:50;;;;;;;9.23;8.23;;;;;;;;;;5075240;28;20197;-66
2023/06/25 02:26:16;;;;;;;9.23;8.00;;;;;;;;;;5073784;28;20251;-66
2023/06/25 02:28:42;;;;;;;11.37;8.40;;;;;;;;;;5075082;28;20226;-66
2023/06/25 02:31:08;;;;;;;9.53;7.83;;;;;;;;;;5074983;28;20659;-66
2023/06/25 02:33:34;;;;;;;9.07;7.87;;;;;;;;;;5074947;28;20551;-66
2023/06/25 02:36:00;;;;;;;13.00;8.33;;;;;;;;;;5073632;28;20181;-66
2023/06/25 02:38:26;;;;;;;12.67;8.30;;;;;;;;;;5073476;28;20209;-66
2023/06/25 02:40:52;;;;;;;11.37;9.53;;;;;;;;;;5075353;28;20174;-66
2023/06/25 02:43:18;;;;;;;10.77;8.97;;;;;;;;;;5074834;28;20644;-66
2023/06/25 02:45:44;;;;;;;11.67;8.00;;;;;;;;;;5074025;28;20198;-66
2023/06/25 02:48:10;;;;;;;16.63;7.87;;;;;;;;;;5074643;28;20231;-66
2023/06/25 02:50:36;;;;;;;8.97;7.50;;;;;;;;;;5073599;28;20181;-67
2023/06/25 02:53:02;;;;;;;9.40;8.40;;;;;;;;;;5074814;28;20693;-66
2023/06/25 02:55:28;;;;;;;13.23;8.53;;;;;;;;;;5074643;28;20276;-66
2023/06/25 02:57:56;;;;;;;10.00;8.83;;;;;;;;;;5074579;28;20292;-66
2023/06/25 03:00:22;;;;;;;9.87;8.67;;;;;;;;;;5073077;28;20170;-66
2023/06/25 03:02:48;;;;;;;9.67;8.63;;;;;;;;;;5074437;28;20180;-66
2023/06/25 03:05:14;;;;;;;11.80;8.97;;;;;;;;;;5072922;28;20276;-66
2023/06/25 03:07:50;;;;;;;9.50;8.10;;;;;;;;;;5074219;28;20724;-66
2023/06/25 03:10:15;;;;;;;17.23;10.00;;;;;;;;;;5073049;28;20659;-66
2023/06/25 03:12:41;;;;;;;11.03;8.93;;;;;;;;;;5074439;28;20189;-66
2023/06/25 03:15:08;;;;;;;11.00;9.33;;;;;;;;;;5074169;28;20220;-66
2023/06/25 03:17:34;;;;;;;9.83;8.70;;;;;;;;;;5074075;28;20751;-66
2023/06/25 03:20:00;;;;;;;10.57;8.73;;;;;;;;;;5073668;28;20270;-66
2023/06/25 03:22:26;;;;;;;11.93;9.17;;;;;;;;;;5074049;28;20659;-66
2023/06/25 03:24:52;;;;;;;11.70;8.37;;;;;;;;;;5072856;28;20198;-66
2023/06/25 03:27:17;;;;;;;10.10;8.33;;;;;;;;;;5073026;28;20186;-66
2023/06/25 03:29:43;;;;;;;9.40;8.47;;;;;;;;;;5072649;28;20177;-66
2023/06/25 03:32:09;;;;;;;12.60;8.80;;;;;;;;;;5072729;28;20182;-66
2023/06/25 03:34:35;;;;;;;10.00;9.00;;;;;;;;;;5072557;28;20209;-66
2023/06/25 03:37:01;;;;;;;13.13;9.00;;;;;;;;;;5073802;28;20261;-66
2023/06/25 03:39:27;;;;;;;11.23;8.60;;;;;;;;;;5075258;28;20658;-66
2023/06/25 03:41:53;;;;;;;10.83;8.70;;;;;;;;;;5072909;28;20181;-66
2023/06/25 03:44:19;;;;;;;11.70;9.27;;;;;;;;;;5073964;28;20273;-66
2023/06/25 03:46:45;;;;;;;56.07;10.93;;;;;;;;;;5075325;28;20178;-66
2023/06/25 03:49:11;;;;;;;11.23;8.70;;;;;;;;;;5076395;28;20177;-65
2023/06/25 03:51:37;;;;;;;11.70;8.73;;;;;;;;;;5075745;28;20178;-66
2023/06/25 03:54:03;;;;;;;9.90;8.73;;;;;;;;;;5075270;28;20209;-66
2023/06/25 03:56:29;;;;;;;10.97;9.13;;;;;;;;;;5072123;28;20620;-66
2023/06/25 03:58:55;;;;;;;9.47;8.50;;;;;;;;;;5073260;28;20592;-66
2023/06/25 04:01:21;;;;;;;9.57;8.57;;;;;;;;;;5073854;28;20177;-66
2023/06/25 04:03:47;;;;;;;10.30;8.37;;;;;;;;;;5073588;28;20250;-66
2023/06/25 04:06:13;;;;;;;10.73;8.67;;;;;;;;;;5073619;28;20192;-66
2023/06/25 04:08:42;;;;;;;10.23;8.73;;;;;;;;;;5074051;28;20635;-66
2023/06/25 04:11:07;;;;;;;11.20;8.17;;;;;;;;;;5072498;28;20213;-66
2023/06/25 04:13:33;;;;;;;9.53;8.53;;;;;;;;;;5072347;28;20217;-66
2023/06/25 04:16:00;;;;;;;11.53;8.53;;;;;;;;;;5073458;28;20573;-66
2023/06/25 04:18:26;;;;;;;9.50;8.40;;;;;;;;;;5072328;28;20296;-66
2023/06/25 04:20:52;;;;;;;10.53;8.90;;;;;;;;;;5073665;28;20185;-66
2023/06/25 04:23:18;;;;;;;10.33;8.53;;;;;;;;;;5073684;28;20173;-67
2023/06/25 04:25:44;;;;;;;9.97;8.37;;;;;;;;;;5072283;28;20204;-66
2023/06/25 04:28:14;;;;;;;12.43;8.80;;;;;;;;;;5072397;28;20190;-66
2023/06/25 04:30:40;;;;;;;10.47;8.33;;;;;;;;;;5072352;28;20244;-66
2023/06/25 04:33:07;;;;;;;9.53;8.63;;;;;;;;;;5074081;28;20594;-66
2023/06/25 04:35:33;;;;;;;11.63;8.40;;;;;;;;;;5073745;28;20220;-66
2023/06/25 04:37:59;;;;;;;10.37;8.53;;;;;;;;;;5072258;28;20205;-66
2023/06/25 04:40:25;;;;;;;10.57;8.77;;;;;;;;;;5073560;28;20222;-66
2023/06/25 04:42:51;;;;;;;9.03;8.07;;;;;;;;;;5072209;28;20677;-66
2023/06/25 04:45:17;;;;;;;9.63;8.23;;;;;;;;;;5073482;28;20209;-66
2023/06/25 04:47:43;;;;;;;;;;;;;;;;;;5074028;28;20078;-66
2023/06/25 04:50:09;;;;;;;;;;;;;;;;;;5072566;28;19908;-66
2023/06/25 04:52:35;;;;;;;22.87;9.07;;;;;;;;;;5073531;28;20176;-66
2023/06/25 04:55:01;;;;;;;14.80;7.27;;;;;;;;;;5072059;28;20190;-67
2023/06/25 04:57:27;;;;;;;8.40;7.03;;;;;;;;;;5073161;28;20198;-67
2023/06/25 04:59:53;;;;;;;8.17;7.37;;;;;;;;;;5073194;28;20177;-66
2023/06/25 05:02:19;;;;;;;14.07;7.40;;;;;;;;;;5073312;28;20307;-67
2023/06/25 05:04:45;;;;;;;9.85;7.22;;;;;;;;;;5071830;28;20714;-67
2023/06/25 05:07:11;;;;;;;10.50;7.85;;;;;;;;;;5073277;28;20186;-67
2023/06/25 05:09:37;;;;;;;13.00;8.35;;;;;;;;;;5076060;28;20552;-67
2023/06/25 05:12:03;;;;;;;11.32;9.48;;;;;;;;;;5077022;28;20178;-66
2023/06/25 05:14:29;;;;;;;8.75;7.82;;;;;;;;;;5075761;28;20273;-66
2023/06/25 05:16:55;;;;;;;11.80;8.50;;;;;;;;;;5080890;28;20205;-66
2023/06/25 05:19:21;;;;;;;9.07;7.78;;;;;;;;;;5079928;28;20535;-66
2023/06/25 05:21:47;;;;;;;9.20;8.25;;;;;;;;;;5082067;28;20520;-66
2023/06/25 05:24:13;;;;;;;10.23;8.10;;;;;;;;;;5080229;28;20198;-67
2023/06/25 05:26:39;;;;;;;9.03;7.73;;;;;;;;;;5079401;28;20174;-66
2023/06/25 05:29:05;;;;;;;8.87;8.07;;;;;;;;;;5080331;28;20215;-66
2023/06/25 05:31:31;;;;;;;9.40;8.50;;;;;;;;;;5080107;28;20658;-66
2023/06/25 05:33:57;;;;;;;12.40;8.10;;;;;;;;;;5076712;28;20209;-66
2023/06/25 05:36:23;;;;;;;12.10;8.73;;;;;;;;;;5075136;28;20205;-66
2023/06/25 05:38:49;;;;;;;11.63;8.17;;;;;;;;;;5075071;28;20209;-67
2023/06/25 05:41:15;;;;;;;10.13;8.33;;;;;;;;;;5075173;28;20697;-66
2023/06/25 05:43:41;;;;;;;9.87;7.87;;;;;;;;;;5076505;28;20173;-66
2023/06/25 05:46:11;;;;;;;12.80;8.90;;;;;;;;;;5076156;28;20269;-67
2023/06/25 05:48:38;;;;;;;29.30;22.23;;;;;;;;;;5075839;28;20688;-67
2023/06/25 05:51:04;;;;;;;30.77;22.80;;;;;;;;;;5076531;28;20181;-67
2023/06/25 05:53:37;;;;;;;38.37;26.30;;;;;;;;;;5076333;28;20178;-67
2023/06/25 05:56:03;;;;;;;48.23;31.73;;;;;;;;;;5075040;28;20602;-67
2023/06/25 05:58:29;;;;;;;51.07;30.20;;;;;;;;;;5076508;28;20257;-66
2023/06/25 06:00:55;;;;;;;41.33;25.40;;;;;;;;;;5076130;28;20185;-67
2023/06/25 06:03:21;;;;;;;29.30;18.90;;;;;;;;;;5075781;28;20216;-67
2023/06/25 06:05:47;;;;;;;34.17;20.13;;;;;;;;;;5075877;28;20201;-67
2023/06/25 06:08:13;;;;;;;61.33;29.57;;;;;;;;;;5075604;28;20184;-67
2023/06/25 06:10:39;;;;;;;38.60;20.37;;;;;;;;;;5075647;28;20181;-67
2023/06/25 06:13:05;;;;;;;29.80;16.53;;;;;;;;;;5075819;28;20182;-67
2023/06/25 06:15:31;;;;;;;20.50;13.00;;;;;;;;;;5075083;28;20718;-68
2023/06/25 06:17:57;;;;;;;12.93;10.00;;;;;;;;;;5075256;28;20202;-67
2023/06/25 06:20:23;;;;;;;13.97;9.07;;;;;;;;;;5074515;28;20276;-67
2023/06/25 06:22:49;;;;;;;12.07;8.70;;;;;;;;;;5075297;28;20594;-67
2023/06/25 06:25:15;;;;;;;14.47;8.37;;;;;;;;;;5073748;28;20683;-67
2023/06/25 06:27:41;;;;;;;8.93;8.00;;;;;;;;;;5075217;28;20181;-68
2023/06/25 06:30:07;;;;;;;11.10;8.60;;;;;;;;;;5075269;28;20174;-67
2023/06/25 06:32:33;;;;;;;9.90;7.90;;;;;;;;;;5075099;28;20182;-67
2023/06/25 06:34:59;;;;;;;9.70;7.77;;;;;;;;;;5074327;28;20572;-66
2023/06/25 06:37:25;;;;;;;10.20;8.03;;;;;;;;;;5075421;28;20579;-66
2023/06/25 06:39:51;;;;;;;11.77;8.30;;;;;;;;;;5076611;28;20765;-66
2023/06/25 06:42:17;;;;;;;8.50;7.37;;;;;;;;;;5075834;28;20227;-66
2023/06/25 06:44:43;;;;;;;11.27;8.07;;;;;;;;;;5074398;28;20300;-66
2023/06/25 06:47:09;;;;;;;11.63;8.87;;;;;;;;;;5075274;28;20227;-66
2023/06/25 06:49:35;;;;;;;10.40;8.77;;;;;;;;;;5075298;28;20544;-66
2023/06/25 06:52:01;;;;;;;9.00;7.70;;;;;;;;;;5074865;28;20174;-68
2023/06/25 06:54:27;;;;;;;9.00;7.40;;;;;;;;;;5073384;28;20201;-66
2023/06/25 06:56:53;;;;;;;9.53;8.00;;;;;;;;;;5075202;28;20173;-69
2023/06/25 06:59:19;;;;;;;11.67;8.37;;;;;;;;;;5074813;28;20185;-66
2023/06/25 07:01:45;;;;;;;12.30;8.03;;;;;;;;;;5074411;28;20235;-66
2023/06/25 07:04:11;;;;;;;14.63;9.40;;;;;;;;;;5074622;28;20193;-65
2023/06/25 07:06:37;;;;;;;11.00;8.83;;;;;;;;;;5074659;28;20279;-67
2023/06/25 07:09:03;;;;;;;12.10;7.80;;;;;;;;;;5075081;28;20209;-66
2023/06/25 07:11:29;;;;;;;11.73;8.10;;;;;;;;;;5076594;28;20178;-66
2023/06/25 07:13:54;;;;;;;13.63;8.10;;;;;;;;;;5078464;28;20209;-66
2023/06/25 07:16:20;;;;;;;13.60;8.73;;;;;;;;;;5075482;28;20189;-66
2023/06/25 07:18:46;;;;;;;16.93;9.00;;;;;;;;;;5075124;28;20292;-66
2023/06/25 07:21:12;;;;;;;14.57;8.50;;;;;;;;;;5076492;28;20189;-67
2023/06/25 07:23:38;;;;;;;13.20;8.40;;;;;;;;;;5076259;28;20177;-66
2023/06/25 07:26:04;;;;;;;8.80;7.90;;;;;;;;;;5076512;28;20244;-66
2023/06/25 07:28:30;;;;;;;13.97;9.30;;;;;;;;;;5076510;28;20185;-66
2023/06/25 07:30:56;;;;;;;13.60;8.50;;;;;;;;;;5066468;22;20602;-68
2023/06/25 07:33:22;;;;;;;11.70;8.37;;;;;;;;;;5052488;28;20640;-68
2023/06/25 07:35:48;;;;;;;13.90;8.90;;;;;;;;;;5053722;28;20174;-68
2023/06/25 07:38:14;;;;;;;18.73;10.77;;;;;;;;;;5053892;28;20198;-68
2023/06/25 07:40:40;;;;;;;18.70;10.50;;;;;;;;;;5053558;28;20629;-68
2023/06/25 07:43:06;;;;;;;22.27;11.03;;;;;;;;;;5053651;28;20175;-68
2023/06/25 07:45:32;;;;;;;10.23;8.10;;;;;;;;;;5052276;28;20233;-68
2023/06/25 07:47:58;;;;;;;11.63;7.93;;;;;;;;;;5052278;28;20212;-68
2023/06/25 07:50:24;;;;;;;11.07;7.90;;;;;;;;;;5052198;28;20198;-68
2023/06/25 07:52:50;;;;;;;9.30;7.33;;;;;;;;;;5053592;28;20189;-68
2023/06/25 07:55:16;;;;;;;8.30;7.13;;;;;;;;;;5053407;28;20224;-68
2023/06/25 07:57:42;;;;;;;10.57;8.30;;;;;;;;;;5052879;28;20218;-67
2023/06/25 08:00:09;;;;;;;12.47;8.30;;;;;;;;;;5052244;28;20251;-68
2023/06/25 08:02:35;;;;;;;9.57;7.93;;;;;;;;;;5052506;28;20178;-68
2023/06/25 08:05:01;;;;;;;8.80;7.67;;;;;;;;;;5054602;28;20202;-68
2023/06/25 08:07:27;;;;;;;12.17;8.40;;;;;;;;;;5060418;28;20202;-68
2023/06/25 08:09:53;;;;;;;7.87;7.07;;;;;;;;;;5053493;28;20688;-68
2023/06/25 08:12:19;;;;;;;11.73;8.53;;;;;;;;;;5053579;28;20660;-68
2023/06/25 08:14:46;;;;;;;9.50;7.77;;;;;;;;;;5052006;28;20174;-68
2023/06/25 08:17:12;;;;;;;12.53;7.90;;;;;;;;;;5051917;28;20182;-68
2023/06/25 08:19:38;;;;;;;10.53;8.43;;;;;;;;;;5052096;28;20198;-68
2023/06/25 08:22:04;;;;;;;9.40;8.00;;;;;;;;;;5052018;28;20273;-68
2023/06/25 08:24:30;;;;;;;9.80;7.27;;;;;;;;;;5053370;28;20170;-68
2023/06/25 08:26:56;;;;;;;7.17;6.47;;;;;;;;;;5052103;28;20235;-68
2023/06/25 08:29:22;;;;;;;6.67;6.07;;;;;;;;;;5052015;28;20205;-67
2023/06/25 08:31:48;;;;;;;7.30;6.47;;;;;;;;;;5053891;28;20585;-69
2023/06/25 08:34:14;;;;;;;12.37;7.00;;;;;;;;;;5053829;28;20258;-67
2023/06/25 08:36:39;;;;;;;7.27;6.63;;;;;;;;;;5051861;28;20178;-69
2023/06/25 08:39:05;;;;;;;11.93;7.13;;;;;;;;;;5051642;28;20206;-68
2023/06/25 08:41:31;;;;;;;24.83;7.73;;;;;;;;;;5052691;28;20245;-67
2023/06/25 08:43:57;;;;;;;8.00;7.20;;;;;;;;;;5054570;28;20179;-67
2023/06/25 08:46:24;;;;;;;7.03;6.40;;;;;;;;;;5056898;28;20252;-68
2023/06/25 08:48:53;;;;;;;7.17;6.27;;;;;;;;;;5057124;28;20185;-67
2023/06/25 08:51:24;;;;;;;7.10;6.40;;;;;;;;;;5055382;28;20238;-67
2023/06/25 08:53:50;;;;;;;9.10;6.97;;;;;;;;;;5057189;28;20166;-68
2023/06/25 08:56:16;;;;;;;7.90;6.87;;;;;;;;;;5056733;28;20182;-68
2023/06/25 08:58:42;;;;;;;8.67;7.20;;;;;;;;;;5056732;28;20218;-67
2023/06/25 09:01:08;;;;;;;7.90;6.63;;;;;;;;;;5055853;28;20223;-68
2023/06/25 09:03:34;;;;;;;8.30;6.80;;;;;;;;;;5055593;28;20277;-71
2023/06/25 09:06:00;;;;;;;7.53;6.83;;;;;;;;;;5056816;28;20632;-70
2023/06/25 09:08:27;;;;;;;8.10;7.33;;;;;;;;;;5056822;28;20700;-70
2023/06/25 09:10:53;;;;;;;7.17;6.50;;;;;;;;;;5056545;28;20202;-70
2023/06/25 09:13:26;;;;;;;7.67;6.77;;;;;;;;;;5056369;28;20565;-70
2023/06/25 09:15:53;;;;;;;17.97;7.10;;;;;;;;;;5056490;28;20186;-70
2023/06/25 09:18:21;;;;;;;8.43;6.80;;;;;;;;;;5056524;28;20566;-70
2023/06/25 09:20:48;;;;;;;8.27;6.90;;;;;;;;;;5056435;28;20221;-70
2023/06/25 09:23:18;;;;;;;11.53;6.90;;;;;;;;;;5056200;28;20171;-70
2023/06/25 09:25:45;;;;;;;7.73;6.93;;;;;;;;;;5056650;28;20205;-70
2023/06/25 09:28:10;;;;;;;10.73;6.80;;;;;;;;;;5056487;28;20189;-70
2023/06/25 09:30:39;;;;;;;8.93;6.90;;;;;;;;;;5055728;28;20586;-70
2023/06/25 09:33:05;;;;;;;7.40;6.70;;;;;;;;;;5055877;28;20178;-70
2023/06/25 09:35:31;;;;;;;7.20;6.50;;;;;;;;;;5056281;28;20174;-70
2023/06/25 09:37:57;;;;;;;7.37;6.20;;;;;;;;;;5056000;28;20281;-70
2023/06/25 09:40:23;;;;;;;7.43;6.70;;;;;;;;;;5055792;28;20646;-70
2023/06/25 09:42:52;;;;;;;6.70;6.10;;;;;;;;;;5055799;28;20234;-70
2023/06/25 09:45:20;;;;;;;10.60;6.20;;;;;;;;;;5054344;28;20644;-70
2023/06/25 09:47:46;;;;;;;16.80;6.20;;;;;;;;;;5055682;28;20325;-70
2023/06/25 09:50:15;;;;;;;29.30;6.90;;;;;;;;;;5056878;28;20619;-70
2023/06/25 09:52:42;;;;;;;16.50;6.87;;;;;;;;;;5054412;28;20189;-70
2023/06/25 09:55:10;;;;;;;8.37;6.03;;;;;;;;;;5055676;28;20183;-70
2023/06/25 09:57:36;;;;;;;7.30;5.73;;;;;;;;;;5054655;28;20206;-71
2023/06/25 10:00:04;;;;;;;7.93;6.15;;;;;;;;;;5054154;28;20580;-71
2023/06/25 10:02:30;;;;;;;9.13;6.93;;;;;;;;;;5055444;28;20258;-70
2023/06/25 10:04:56;;;;;;;7.30;6.57;;;;;;;;;;5055329;28;20171;-70
2023/06/25 10:07:24;;;;;;;6.00;5.40;;;;;;;;;;5055378;28;20625;-71
2023/06/25 10:09:54;;;;;;;7.50;6.40;;;;;;;;;;5054066;28;20213;-70
2023/06/25 10:12:20;;;;;;;8.70;7.17;;;;;;;;;;5055351;28;20262;-70
2023/06/25 10:14:47;;;;;;;6.93;6.10;;;;;;;;;;5054262;28;20214;-70
2023/06/25 10:17:14;;;;;;;6.82;6.20;;;;;;;;;;5055652;28;20182;-70
2023/06/25 10:19:50;;;;;;;6.13;5.53;;;;;;;;;;5055106;28;20190;-70
2023/06/25 10:22:21;;;;;;;9.70;7.15;;;;;;;;;;5053876;28;20243;-70
2023/06/25 10:24:51;;;;;;;12.13;7.10;;;;;;;;;;5055372;28;20163;-70
2023/06/25 10:27:26;;;;;;;7.63;6.30;;;;;;;;;;5054947;28;20170;-71
2023/06/25 10:29:56;;;;;;;6.68;6.07;;;;;;;;;;5054922;28;20684;-70
2023/06/25 10:32:27;;;;;;;6.20;5.70;;;;;;;;;;5053653;28;20181;-70
2023/06/25 10:34:53;;;;;;;7.10;5.97;;;;;;;;;;5053710;28;20421;-70
2023/06/25 10:37:19;;;;;;;7.07;6.38;;;;;;;;;;5054738;28;20555;-70
2023/06/25 10:39:45;;;;;;;20.90;7.03;;;;;;;;;;5054808;28;20195;-70
2023/06/25 10:42:13;;;;;;;8.23;6.75;;;;;;;;;;5055279;28;20177;-70
2023/06/25 10:44:39;;;;;;;7.30;6.60;;;;;;;;;;5054584;28;20663;-70
2023/06/25 10:47:06;;;;;;;10.00;6.07;;;;;;;;;;5054959;28;20592;-70
2023/06/25 10:49:32;;;;;;;7.10;6.40;;;;;;;;;;5054543;28;20189;-70
2023/06/25 10:51:59;;;;;;;7.50;6.60;;;;;;;;;;5054572;28;20284;-70
2023/06/25 10:54:25;;;;;;;6.88;6.10;;;;;;;;;;5054695;28;20202;-70
2023/06/25 10:56:54;;;;;;;6.95;6.25;;;;;;;;;;5054622;28;20174;-70
2023/06/25 10:59:23;;;;;;;6.55;5.80;;;;;;;;;;5054460;28;20240;-70
2023/06/25 11:01:50;;;;;;;6.65;6.05;;;;;;;;;;5053089;28;20637;-70
2023/06/25 11:04:16;;;;;;;7.13;6.20;;;;;;;;;;5054573;28;20236;-70
2023/06/25 11:06:42;;;;;;;6.90;6.20;;;;;;;;;;5052619;28;20211;-71
2023/06/25 11:09:08;;;;;;;9.98;6.95;;;;;;;;;;5052912;28;20189;-70
2023/06/25 11:11:34;;;;;;;8.60;6.65;;;;;;;;;;5052732;28;20198;-70
2023/06/25 11:14:00;;;;;;;9.45;6.22;;;;;;;;;;5052660;28;20274;-70
2023/06/25 11:16:26;;;;;;;6.72;5.88;;;;;;;;;;5052735;28;20178;-70
2023/06/25 11:18:52;;;;;;;7.15;6.45;;;;;;;;;;5052372;28;20201;-70
2023/06/25 11:21:18;;;;;;;7.30;6.18;;;;;;;;;;5053855;28;20716;-70
2023/06/25 11:23:44;;;;;;;7.28;6.28;;;;;;;;;;5053911;28;20171;-70
2023/06/25 11:26:13;;;;;;;8.30;6.15;;;;;;;;;;5054181;28;20220;-70
2023/06/25 11:28:39;;;;;;;6.10;5.60;;;;;;;;;;5052868;28;20194;-70
2023/06/25 11:31:05;;;;;;;7.00;6.30;;;;;;;;;;5054134;28;20577;-70
2023/06/25 11:33:31;;;;;;;8.00;5.55;;;;;;;;;;5054338;28;20208;-70
2023/06/25 11:36:09;;;;;;;9.88;6.88;;;;;;;;;;5053592;28;20657;-70
2023/06/25 11:38:34;;;;;;;13.35;7.05;;;;;;;;;;5053560;28;20687;-70
2023/06/25 11:41:00;;;;;;;6.60;5.90;;;;;;;;;;5052129;28;20228;-70
2023/06/25 11:43:27;;;;;;;10.13;6.22;;;;;;;;;;5053601;28;20170;-70
2023/06/25 11:45:53;;;;;;;17.58;6.22;;;;;;;;;;5053741;28;20177;-70
2023/06/25 11:48:20;;;;;;;6.40;5.80;;;;;;;;;;5054471;28;20198;-70
2023/06/25 11:50:48;;;;;;;6.70;6.10;;;;;;;;;;5052352;28;20198;-70
2023/06/25 11:53:14;;;;;;;6.93;6.22;;;;;;;;;;5053733;28;20190;-70
2023/06/25 11:55:40;;;;;;;9.70;6.05;;;;;;;;;;5053909;28;20181;-70
2023/06/25 11:58:06;;;;;;;7.07;6.38;;;;;;;;;;5053208;28;20198;-69
2023/06/25 12:00:32;;;;;;;8.40;6.47;;;;;;;;;;5053060;28;20190;-70
2023/06/25 12:02:58;;;;;;;20.88;6.30;;;;;;;;;;5053213;28;20193;-70
2023/06/25 12:05:24;;;;;;;19.77;6.47;;;;;;;;;;5053170;28;20171;-70
2023/06/25 12:07:50;;;;;;;7.85;6.45;;;;;;;;;;5053122;28;20601;-70
2023/06/25 12:10:16;;;;;;;8.70;6.13;;;;;;;;;;5053672;28;20198;-70
2023/06/25 12:12:44;;;;;;;6.70;6.00;;;;;;;;;;5053348;28;20214;-69
2023/06/25 12:15:10;;;;;;;8.48;6.63;;;;;;;;;;5053418;28;20181;-70
2023/06/25 12:17:36;;;;;;;13.80;5.78;;;;;;;;;;5051113;28;20684;-70
2023/06/25 12:20:04;;;;;;;6.07;5.57;;;;;;;;;;5052612;28;20195;-70
2023/06/25 12:22:30;;;;;;;18.65;6.25;;;;;;;;;;5051560;28;20174;-70
2023/06/25 12:24:56;;;;;;;7.47;6.28;;;;;;;;;;5051609;28;20186;-70
2023/06/25 12:27:22;;;;;;;7.53;6.57;;;;;;;;;;5052883;28;20220;-70
2023/06/25 12:29:48;;;;;;;6.40;5.80;;;;;;;;;;5052888;28;20209;-71
2023/06/25 12:32:13;;;;;;;6.43;5.53;;;;;;;;;;5053228;28;20171;-70
2023/06/25 12:34:39;;;;;;;22.92;6.75;;;;;;;;;;5052793;28;20253;-70
2023/06/25 12:37:05;;;;;;;6.93;5.75;;;;;;;;;;5051574;28;20233;-70
2023/06/25 12:39:31;;;;;;;7.75;5.90;;;;;;;;;;5052924;28;20255;-70
2023/06/25 12:41:57;;;;;;;5.80;5.30;;;;;;;;;;5053056;28;20179;-70
2023/06/25 12:44:23;;;;;;;45.22;6.75;;;;;;;;;;5053207;28;20185;-69
2023/06/25 12:46:49;;;;;;;9.15;6.10;;;;;;;;;;5051978;28;20174;-70
2023/06/25 12:49:15;;;;;;;6.32;5.72;;;;;;;;;;5053054;28;20210;-70
2023/06/25 12:51:41;;;;;;;6.28;5.75;;;;;;;;;;5053258;28;20694;-68
2023/06/25 12:54:07;;;;;;;6.95;6.00;;;;;;;;;;5053439;28;20265;-71
2023/06/25 12:56:33;;;;;;;6.38;5.85;;;;;;;;;;5053627;28;20535;-68
2023/06/25 12:58:59;;;;;;;6.20;5.70;;;;;;;;;;5052230;28;20303;-69
2023/06/25 13:01:25;;;;;;;9.05;6.10;;;;;;;;;;5053365;28;20194;-69
2023/06/25 13:03:51;;;;;;;6.18;5.78;;;;;;;;;;5053659;28;20174;-69
2023/06/25 13:06:18;;;;;;;8.77;5.88;;;;;;;;;;5052982;28;20260;-69
2023/06/25 13:08:44;;;;;;;7.18;6.47;;;;;;;;;;5051557;28;20189;-69
2023/06/25 13:11:10;;;;;;;6.72;6.03;;;;;;;;;;5051522;28;20198;-69
2023/06/25 13:13:36;;;;;;;24.20;7.00;;;;;;;;;;5051367;28;20174;-69
2023/06/25 13:16:02;;;;;;;9.93;5.75;;;;;;;;;;5053114;28;20178;-69
2023/06/25 13:18:28;;;;;;;6.95;6.25;;;;;;;;;;5053312;28;20198;-68
2023/06/25 13:20:54;;;;;;;7.22;5.97;;;;;;;;;;5052593;28;20285;-69
2023/06/25 13:23:20;;;;;;;6.97;6.28;;;;;;;;;;5051476;28;20210;-68
2023/06/25 13:25:46;;;;;;;8.02;6.00;;;;;;;;;;5053322;28;20171;-71
2023/06/25 13:28:11;;;;;;;7.85;5.85;;;;;;;;;;5053095;28;20182;-69
2023/06/25 13:30:37;;;;;;;7.03;6.32;;;;;;;;;;5054970;28;20210;-69
2023/06/25 13:33:04;;;;;;;5.90;5.30;;;;;;;;;;5055129;28;20612;-67
2023/06/25 13:35:30;;;;;;;6.38;5.70;;;;;;;;;;5054790;28;20182;-68
2023/06/25 13:37:56;;;;;;;5.90;5.40;;;;;;;;;;5054863;28;20297;-68
2023/06/25 13:40:22;;;;;;;6.32;5.82;;;;;;;;;;5055970;28;20228;-68
2023/06/25 13:42:48;;;;;;;7.22;6.10;;;;;;;;;;5096452;22;20315;-67
2023/06/25 13:45:15;;;;;;;6.43;5.82;;;;;;;;;;5075553;28;20256;-68
2023/06/25 13:47:41;;;;;;;23.65;7.78;;;;;;;;;;5074144;28;20611;-66
2023/06/25 13:50:08;;;;;;;7.35;6.40;;;;;;;;;;5075517;28;20261;-68
2023/06/25 13:52:34;;;;;;;12.68;6.97;;;;;;;;;;5075300;28;20283;-66
2023/06/25 13:54:59;;;;;;;8.05;6.28;;;;;;;;;;5075645;28;20651;-67
2023/06/25 13:57:25;;;;;;;6.82;6.13;;;;;;;;;;5075822;28;20605;-66
2023/06/25 13:59:51;;;;;;;7.22;6.57;;;;;;;;;;5074707;28;20491;-67
2023/06/25 14:02:17;;;;;;;20.40;6.90;;;;;;;;;;5075109;28;20189;-67
2023/06/25 14:04:43;;;;;;;27.05;6.88;;;;;;;;;;5075794;28;20197;-67
2023/06/25 14:07:09;;;;;;;7.70;5.97;;;;;;;;;;5073860;28;20170;-67
2023/06/25 14:09:35;;;;;;;6.80;6.25;;;;;;;;;;5075290;28;20678;-67
2023/06/25 14:12:01;;;;;;;7.50;6.90;;;;;;;;;;5073693;28;20208;-68
2023/06/25 14:14:27;;;;;;;7.38;6.63;;;;;;;;;;5075037;28;20597;-67
2023/06/25 14:16:53;;;;;;;6.78;6.13;;;;;;;;;;5073808;28;20177;-67
2023/06/25 14:19:19;;;;;;;7.13;6.43;;;;;;;;;;5075072;28;20205;-68
2023/06/25 14:21:46;;;;;;;6.53;5.93;;;;;;;;;;5074850;28;20246;-68
2023/06/25 14:24:12;;;;;;;6.60;6.10;;;;;;;;;;5073606;28;20178;-67
2023/06/25 14:26:38;;;;;;;6.97;6.32;;;;;;;;;;5075040;28;20178;-67
2023/06/25 14:29:04;;;;;;;7.18;6.38;;;;;;;;;;5074340;28;20239;-67
2023/06/25 14:31:30;;;;;;;7.80;6.15;;;;;;;;;;5074767;28;20198;-67
2023/06/25 14:33:55;;;;;;;35.63;7.25;;;;;;;;;;5074604;28;20180;-67